Mountain Home AFB, Idaho
Current Conditions -  °F | °C
As of 2:23 AM on Monday 24 Nov 2014 (Local Time) from KMUO Reporting Station
Scattered Clouds Scattered Clouds  
Wind Chill: 29°   Ceiling: Unl
Heat Index: 36°   Visibility: 10mi
Dew Point: 34°   Wind: 9mph
Humidity: 93%   Direction: 310°NW
Pressure: 30.26"   Gusts: NA
Location:  43.05°N, 115.86°W
Report Text: KMUO 240923Z AUTO 31008KT 10SM FEW050 SCT065 02/01 A3026 RMK AO2
Loading
Personal Weather Stations






























Interactive Weather Map New forecast layout! Learn more

10-Day Weather Forecast

Advertisements
Track Severe Weather on mobile